Time;durP1;ratioP1;P1;durP2;ratioP2;P2;SDS_P1;SDS_P2;PMS_P1;PMS_P2;Temp;Humidity;BMP_temperature;BMP_pressure;BME280_temperature;BME280_humidity;BME280_pressure;Samples;Min_cycle;Max_cycle;Signal;HPM_P1;HPM_P2
2022/12/15 00:40:03;;;;;;;11.65;5.57;;;0.40;99.90;;;;;;5027947;28;20195;-76
2022/12/15 00:42:31;;;;;;;8.57;4.53;;;0.40;99.90;;;;;;5025644;28;20271;-76
2022/12/15 00:44:57;;;;;;;7.37;4.77;;;0.40;99.90;;;;;;5031726;28;20226;-77
2022/12/15 00:47:23;;;;;;;11.07;5.03;;;0.40;99.90;;;;;;5032922;28;20182;-76
2022/12/15 01:20:19;;;;;;;13.13;6.05;;;0.50;99.90;;;;;;5063393;28;20222;-76
2022/12/15 01:22:51;;;;;;;9.97;4.40;;;0.50;99.90;;;;;;5040679;28;20217;-76
2022/12/15 01:25:19;;;;;;;11.43;4.97;;;0.50;99.90;;;;;;5036063;28;20194;-77
2022/12/15 01:27:45;;;;;;;11.90;4.35;;;0.50;99.90;;;;;;5036648;28;20180;-76
2022/12/15 01:30:14;;;;;;;8.68;4.40;;;0.50;99.90;;;;;;5014927;28;20185;-77
2022/12/15 01:32:40;;;;;;;11.65;4.60;;;0.50;99.90;;;;;;5028570;28;20188;-76
2022/12/15 01:35:06;;;;;;;13.00;4.90;;;0.50;99.90;;;;;;5035761;28;20199;-77
2022/12/15 01:37:33;;;;;;;6.10;3.90;;;0.50;99.90;;;;;;5036644;28;20186;-80
2022/12/15 01:41:00;;;;;;;13.88;5.15;;;0.50;99.90;;;;;;5051516;28;20191;-76
2022/12/15 01:42:54;;;;;;;7.25;4.22;;;0.60;99.90;;;;;;5025436;28;20647;-77
2022/12/15 01:45:23;;;;;;;8.55;4.68;;;0.50;99.90;;;;;;5031646;28;20262;-77
2022/12/15 01:48:17;;;;;;;8.10;4.35;;;0.50;99.90;;;;;;5036815;28;20208;-76
2022/12/15 01:50:50;;;;;;;10.30;4.50;;;0.50;99.90;;;;;;5016629;28;20266;-76
2022/12/15 01:53:17;;;;;;;9.25;4.65;;;0.50;99.90;;;;;;5017526;28;20644;-81
2022/12/15 01:55:45;;;;;;;8.93;4.07;;;0.50;99.90;;;;;;5035293;28;20195;-77
2022/12/15 01:58:11;;;;;;;8.45;4.18;;;0.60;99.90;;;;;;5034988;28;20194;-78
2022/12/15 02:00:37;;;;;;;10.68;4.18;;;0.50;99.90;;;;;;5036293;28;20215;-77
2022/12/15 02:03:04;;;;;;;6.68;4.15;;;0.50;99.90;;;;;;5035762;28;20191;-75
2022/12/15 02:05:31;;;;;;;8.68;4.65;;;0.50;99.90;;;;;;5028076;28;20662;-78
2022/12/15 02:07:58;;;;;;;9.27;4.07;;;0.50;99.90;;;;;;5033247;28;20647;-75
2022/12/15 02:10:28;;;;;;;6.10;3.50;;;0.50;99.90;;;;;;5034723;28;20191;-76
2022/12/15 02:13:28;;;;;;;7.88;3.90;;;0.40;99.90;;;;;;5034072;28;20258;-74
2022/12/15 02:16:04;;;;;;;10.57;4.50;;;0.40;99.90;;;;;;5018482;28;20250;-81
2022/12/15 02:18:39;;;;;;;13.20;5.15;;;0.40;99.90;;;;;;5034039;28;20187;-75
2022/12/15 02:21:16;;;;;;;10.50;4.88;;;0.40;99.90;;;;;;5034726;28;20302;-75
2022/12/15 02:24:36;;;;;;;7.25;4.22;;;0.40;99.90;;;;;;5033380;28;20187;-76
2022/12/15 02:27:28;;;;;;;9.85;5.00;;;0.40;99.90;;;;;;4989859;28;20274;-77
2022/12/15 02:30:32;;;;;;;11.95;5.35;;;0.40;99.90;;;;;;4992977;28;20614;-77
2022/12/15 02:33:10;;;;;;;16.55;5.70;;;0.40;99.90;;;;;;5030308;28;20186;-79
2022/12/15 02:35:54;;;;;;;9.93;5.32;;;0.40;99.90;;;;;;5018510;28;20640;-77
2022/12/15 02:38:34;;;;;;;15.98;5.50;;;0.30;99.90;;;;;;5016225;28;20177;-77
2022/12/15 02:41:03;;;;;;;8.85;5.20;;;0.30;99.90;;;;;;5033954;28;20196;-77
2022/12/15 02:43:30;;;;;;;11.00;5.13;;;0.30;99.90;;;;;;5028726;28;20285;-76
2022/12/15 02:46:20;;;;;;;13.32;5.53;;;0.30;99.90;;;;;;5034826;28;20309;-74
2022/12/15 02:48:57;;;;;;;9.60;4.97;;;0.30;99.90;;;;;;5033848;28;20236;-77
2022/12/15 02:51:44;;;;;;;12.63;5.35;;;0.30;99.90;;;;;;5061053;28;20194;-75
2022/12/15 02:54:48;;;;;;;12.15;5.72;;;0.30;99.90;;;;;;5033641;28;20197;-81
2022/12/15 02:57:42;;;;;;;10.07;5.80;;;0.30;99.90;;;;;;5049763;28;20260;-75
2022/12/15 03:00:10;;;;;;;10.20;5.47;;;0.30;99.90;;;;;;5031361;28;20738;-82
2022/12/15 03:02:40;;;;;;;12.57;6.20;;;0.30;99.90;;;;;;5015294;28;20185;-74
2022/12/15 03:05:07;;;;;;;12.93;6.25;;;0.30;99.90;;;;;;5036921;28;20188;-76
2022/12/15 03:07:33;;;;;;;19.55;5.60;;;0.20;99.90;;;;;;5034234;28;20176;-76
2022/12/15 03:10:01;;;;;;;10.45;5.55;;;0.20;99.90;;;;;;5047959;28;20199;-75
2022/12/15 03:12:27;;;;;;;13.48;6.18;;;0.20;99.90;;;;;;5034129;28;20261;-74
2022/12/15 03:14:52;;;;;;;11.50;5.30;;;0.20;99.90;;;;;;5027829;28;20235;-75
2022/12/15 03:17:18;;;;;;;13.13;6.10;;;0.20;99.90;;;;;;5060812;28;20266;-75
2022/12/15 03:19:44;;;;;;;8.07;4.80;;;0.20;99.90;;;;;;5033304;28;20188;-76
2022/12/15 03:22:10;;;;;;;8.77;4.90;;;0.20;99.90;;;;;;5030538;28;20732;-76
2022/12/15 03:24:36;;;;;;;11.82;4.93;;;0.10;99.90;;;;;;5026090;28;20631;-75
2022/12/15 03:27:03;;;;;;;10.18;4.30;;;0.20;99.90;;;;;;5034303;28;20196;-76
2022/12/15 03:29:29;;;;;;;9.55;5.03;;;0.10;99.90;;;;;;5033173;28;20192;-76
2022/12/15 03:31:54;;;;;;;10.55;4.47;;;0.10;99.90;;;;;;5032116;28;20187;-76
2022/12/15 03:34:20;;;;;;;15.60;4.90;;;0.10;99.90;;;;;;5047663;28;20194;-77
2022/12/15 03:36:46;;;;;;;13.65;5.43;;;0.10;99.90;;;;;;5033447;28;20211;-76
2022/12/15 03:39:12;;;;;;;10.57;4.85;;;0.10;99.90;;;;;;5032331;28;20184;-75
2022/12/15 03:41:37;;;;;;;11.52;4.63;;;0.10;99.90;;;;;;5030236;28;20691;-74
2022/12/15 03:44:03;;;;;;;10.43;4.63;;;0.10;99.90;;;;;;5028823;28;20242;-75
2022/12/15 03:46:29;;;;;;;9.00;3.72;;;0.10;99.90;;;;;;5030872;28;20275;-75
2022/12/15 03:48:55;;;;;;;8.48;4.25;;;0.10;99.90;;;;;;5047758;28;20220;-75
2022/12/15 03:51:21;;;;;;;10.57;3.97;;;0.10;99.90;;;;;;5033670;28;20226;-75
2022/12/15 03:53:48;;;;;;;6.78;3.25;;;0.10;99.90;;;;;;5032007;28;20564;-74
2022/12/15 03:56:14;;;;;;;5.72;2.90;;;0.10;99.90;;;;;;5022924;28;20192;-75
2022/12/15 03:58:40;;;;;;;9.65;2.75;;;0.10;99.90;;;;;;5032086;28;20192;-75
2022/12/15 04:01:11;;;;;;;5.25;2.63;;;0.10;99.90;;;;;;5032329;28;20212;-74
2022/12/15 04:03:37;;;;;;;6.40;2.10;;;0.10;99.90;;;;;;5030932;28;20192;-81
2022/12/15 04:06:03;;;;;;;6.53;2.20;;;0.10;99.90;;;;;;5047083;28;20194;-74
2022/12/15 04:08:29;;;;;;;4.88;2.65;;;0.10;99.90;;;;;;5048502;28;20192;-75
2022/12/15 04:10:54;;;;;;;5.43;2.70;;;0.10;99.90;;;;;;5033027;28;20296;-74
2022/12/15 04:13:20;;;;;;;8.93;2.60;;;0.10;99.90;;;;;;5032212;28;20215;-75
2022/12/15 04:15:46;;;;;;;11.13;2.63;;;0.20;99.90;;;;;;5026894;28;21818;-78
2022/12/15 04:18:12;;;;;;;6.88;2.72;;;0.10;99.90;;;;;;5025399;28;20175;-76
2022/12/15 04:20:39;;;;;;;6.13;2.43;;;0.10;99.90;;;;;;5042143;28;20216;-76
2022/12/15 04:23:08;;;;;;;5.33;2.03;;;0.10;99.90;;;;;;5031915;28;20176;-75
2022/12/15 05:32:03;;;;;;;15.52;5.25;;;-0.10;99.90;;;;;;5012868;28;20629;-76
2022/12/15 05:34:33;;;;;;;11.10;4.90;;;-0.10;99.90;;;;;;5030386;28;20202;-77
2022/12/15 05:37:01;;;;;;;14.37;5.90;;;-0.10;99.90;;;;;;5058640;28;20214;-75
2022/12/15 05:39:27;;;;;;;11.25;5.07;;;-0.10;99.90;;;;;;5024178;28;20195;-76
2022/12/15 05:41:54;;;;;;;14.13;6.23;;;-0.10;99.90;;;;;;5028222;28;20733;-77
2022/12/15 05:44:22;;;;;;;11.98;6.25;;;-0.20;99.90;;;;;;5029256;28;20265;-75
2022/12/15 05:46:48;;;;;;;12.40;5.88;;;-0.20;99.90;;;;;;5012444;28;20193;-75
2022/12/15 05:49:16;;;;;;;14.57;6.20;;;-0.20;99.90;;;;;;5023135;28;20194;-77
2022/12/15 05:51:44;;;;;;;11.77;5.93;;;-0.20;99.90;;;;;;5030760;28;20679;-74
2022/12/15 05:54:14;;;;;;;14.10;6.17;;;-0.10;99.90;;;;;;5029722;28;20306;-75
2022/12/15 05:56:40;;;;;;;12.47;6.40;;;-0.20;99.90;;;;;;5025739;28;20179;-75
2022/12/15 05:59:05;;;;;;;13.80;5.80;;;-0.20;99.90;;;;;;5029530;28;20203;-75
2022/12/15 06:01:31;;;;;;;10.07;5.30;;;-0.20;99.90;;;;;;5027998;28;20247;-75
2022/12/15 06:03:58;;;;;;;14.03;6.43;;;-0.20;99.90;;;;;;5027951;28;20188;-77
2022/12/15 06:06:24;;;;;;;11.97;5.63;;;-0.20;99.90;;;;;;5025506;28;20282;-75
2022/12/15 06:08:50;;;;;;;12.88;6.57;;;-0.20;99.90;;;;;;5027112;28;20183;-76
2022/12/15 06:11:18;;;;;;;8.98;5.90;;;-0.10;99.90;;;;;;5034567;28;20180;-78
2022/12/15 06:13:44;;;;;;;15.95;6.57;;;-0.10;99.90;;;;;;5033187;28;20180;-76
2022/12/15 06:16:13;;;;;;;14.55;5.88;;;-0.10;99.90;;;;;;5028577;28;20635;-75
2022/12/15 06:18:49;;;;;;;15.23;5.97;;;-0.10;99.90;;;;;;5029603;28;20191;-76
2022/12/15 06:21:17;;;;;;;14.02;5.93;;;-0.10;99.90;;;;;;5021196;28;20207;-76
2022/12/15 06:23:43;;;;;;;13.75;5.85;;;-0.10;99.90;;;;;;5026106;28;20269;-77
2022/12/15 06:26:13;;;;;;;11.43;6.10;;;0.00;99.90;;;;;;5015418;28;20188;-77
2022/12/15 06:28:39;;;;;;;12.23;5.90;;;0.00;99.90;;;;;;5018558;28;20236;-75
2022/12/15 06:31:07;;;;;;;11.32;5.85;;;0.00;99.90;;;;;;5030947;28;20226;-77
2022/12/15 06:33:33;;;;;;;9.95;5.25;;;0.00;99.90;;;;;;5023108;28;20250;-80
2022/12/15 06:36:04;;;;;;;14.67;5.77;;;0.00;99.90;;;;;;5022273;28;20766;-80
2022/12/15 06:38:30;;;;;;;10.00;5.10;;;0.10;99.90;;;;;;5021087;28;20198;-76
2022/12/15 06:40:57;;;;;;;10.65;4.82;;;0.10;99.90;;;;;;5021845;28;20301;-78
2022/12/15 06:43:23;;;;;;;15.98;5.72;;;0.10;99.90;;;;;;5026899;28;20184;-77
2022/12/15 06:45:50;;;;;;;10.93;5.00;;;0.10;99.90;;;;;;5025219;28;21187;-75
2022/12/15 06:48:16;;;;;;;8.07;4.73;;;0.20;99.90;;;;;;5018817;28;20181;-74
2022/12/15 06:50:44;;;;;;;10.90;5.13;;;0.20;99.90;;;;;;5037103;28;20594;-75
2022/12/15 06:53:11;;;;;;;13.38;5.47;;;0.20;99.90;;;;;;5013207;28;20201;-80
2022/12/15 06:55:37;;;;;;;8.97;5.07;;;0.30;99.90;;;;;;5033849;28;20176;-79
2022/12/15 06:58:03;;;;;;;13.37;5.63;;;0.30;99.90;;;;;;5049874;28;20192;-76
2022/12/15 07:00:29;;;;;;;12.97;5.73;;;0.30;99.90;;;;;;5028392;28;20212;-77
2022/12/15 07:02:54;;;;;;;10.25;5.40;;;0.30;99.90;;;;;;5033816;28;20188;-75
2022/12/15 07:05:20;;;;;;;9.13;5.07;;;0.40;99.90;;;;;;5034588;28;20176;-75
2022/12/15 07:07:47;;;;;;;8.57;5.00;;;0.40;99.90;;;;;;5016917;28;20180;-80
2022/12/15 07:10:13;;;;;;;12.60;5.53;;;0.40;99.90;;;;;;5032111;28;21520;-80
2022/12/15 07:12:38;;;;;;;13.03;5.23;;;0.40;99.90;;;;;;5019768;28;20211;-75
2022/12/15 07:15:04;;;;;;;8.82;5.40;;;0.40;99.90;;;;;;5019590;28;20245;-75
2022/12/15 07:17:30;;;;;;;14.15;5.05;;;0.50;99.90;;;;;;5024613;28;20191;-75
2022/12/15 07:19:56;;;;;;;11.00;5.00;;;0.50;99.90;;;;;;5048136;28;20717;-78
2022/12/15 07:22:22;;;;;;;16.17;5.50;;;0.50;99.90;;;;;;5030473;28;20216;-75
2022/12/15 07:24:48;;;;;;;10.95;5.38;;;0.60;99.90;;;;;;5022278;28;21138;-75
2022/12/15 07:27:14;;;;;;;10.93;5.50;;;0.50;99.90;;;;;;5026222;28;20191;-75
2022/12/15 07:29:40;;;;;;;14.50;5.80;;;0.60;99.90;;;;;;5064689;28;20606;-74
2022/12/15 07:32:05;;;;;;;14.90;5.88;;;0.50;99.90;;;;;;5033039;28;20266;-84
2022/12/15 07:34:31;;;;;;;12.23;5.68;;;0.60;99.90;;;;;;5023824;28;20278;-74
2022/12/15 07:36:57;;;;;;;15.73;5.70;;;0.60;99.90;;;;;;5032262;28;20184;-77
2022/12/15 07:39:23;;;;;;;13.98;5.63;;;0.60;99.90;;;;;;5032244;28;20671;-75
2022/12/15 07:41:49;;;;;;;14.98;6.30;;;0.60;99.90;;;;;;5033033;28;20303;-75
2022/12/15 07:44:15;;;;;;;10.93;5.80;;;0.70;99.90;;;;;;5031739;28;20277;-74
2022/12/15 07:46:45;;;;;;;15.02;5.50;;;0.70;99.90;;;;;;5030866;28;20191;-76
2022/12/15 07:49:12;;;;;;;15.25;5.38;;;0.70;99.90;;;;;;5018630;28;20656;-76
2022/12/15 07:51:37;;;;;;;14.30;5.60;;;0.70;99.90;;;;;;5022903;28;20204;-75
2022/12/15 07:54:03;;;;;;;11.70;5.63;;;0.70;99.90;;;;;;5021403;28;20640;-74
2022/12/15 07:56:29;;;;;;;11.23;5.40;;;0.70;99.90;;;;;;5034067;28;20218;-76
2022/12/15 07:58:54;;;;;;;12.13;5.22;;;0.80;99.90;;;;;;5064782;28;20188;-75
2022/12/15 08:01:20;;;;;;;13.68;5.75;;;0.80;99.90;;;;;;5031261;28;20216;-75
2022/12/15 08:03:47;;;;;;;17.98;5.30;;;0.90;99.90;;;;;;5018407;28;20241;-75
2022/12/15 08:06:14;;;;;;;12.35;5.53;;;0.90;99.90;;;;;;5029660;28;20180;-75
2022/12/15 08:08:42;;;;;;;10.18;5.40;;;0.90;99.90;;;;;;5064260;28;20183;-74
2022/12/15 08:11:10;;;;;;;13.10;5.55;;;1.00;99.90;;;;;;5033068;28;20184;-75
2022/12/15 08:13:37;;;;;;;10.75;5.65;;;1.00;99.90;;;;;;5031375;28;20191;-77
2022/12/15 08:16:03;;;;;;;15.65;5.75;;;1.00;99.90;;;;;;5016431;28;20202;-77
2022/12/15 08:18:29;;;;;;;15.45;6.18;;;1.10;99.90;;;;;;5016680;28;20191;-75
2022/12/15 08:20:55;;;;;;;17.08;5.80;;;1.10;99.90;;;;;;5046157;28;20584;-74
2022/12/15 08:23:20;;;;;;;12.88;6.25;;;1.20;99.90;;;;;;5030226;28;20195;-77
2022/12/15 08:25:46;;;;;;;15.63;6.10;;;1.20;99.90;;;;;;5032007;28;20275;-75
2022/12/15 08:28:12;;;;;;;18.48;6.38;;;1.20;99.90;;;;;;5018864;28;20188;-75
2022/12/15 08:30:38;;;;;;;10.70;6.05;;;1.30;99.90;;;;;;5019982;28;20299;-75
2022/12/15 08:33:03;;;;;;;13.70;6.35;;;1.30;99.90;;;;;;5024205;28;20274;-76
2022/12/15 08:35:29;;;;;;;13.23;5.68;;;1.40;99.90;;;;;;5026196;28;20686;-76
2022/12/15 08:37:55;;;;;;;16.30;6.63;;;1.40;99.90;;;;;;5047083;28;20192;-75
2022/12/15 08:40:21;;;;;;;17.80;6.18;;;1.40;99.90;;;;;;5016752;28;20199;-74
2022/12/15 08:42:46;;;;;;;18.05;6.50;;;1.40;99.90;;;;;;5019364;28;20648;-78
2022/12/15 08:45:12;;;;;;;19.73;6.38;;;1.50;99.90;;;;;;5029192;28;20231;-76
2022/12/15 08:47:39;;;;;;;17.33;6.78;;;1.50;99.90;;;;;;5048189;28;20246;-76
2022/12/15 08:50:07;;;;;;;23.58;9.48;;;1.50;99.90;;;;;;5021423;28;20183;-78
2022/12/15 08:52:33;;;;;;;20.70;9.80;;;1.60;99.90;;;;;;5021037;28;20183;-77
2022/12/15 08:54:59;;;;;;;25.50;7.20;;;1.70;99.90;;;;;;5029103;28;20222;-78
2022/12/15 08:57:25;;;;;;;15.77;6.72;;;1.70;99.90;;;;;;5031334;28;20215;-78
2022/12/15 08:59:50;;;;;;;14.10;5.90;;;1.90;99.90;;;;;;5029884;28;20219;-75
2022/12/15 09:02:16;;;;;;;15.23;6.85;;;2.10;99.90;;;;;;5030748;28;20445;-75
2022/12/15 09:04:44;;;;;;;14.63;6.93;;;2.50;99.90;;;;;;5034686;28;20478;-76
2022/12/15 09:07:10;;;;;;;16.20;6.38;;;2.80;99.90;;;;;;5033171;28;20550;-78
2022/12/15 09:09:35;;;;;;;10.43;5.90;;;3.10;99.90;;;;;;5063606;28;20275;-76
2022/12/15 09:12:01;;;;;;;44.60;20.83;;;3.40;99.90;;;;;;5046753;28;20263;-77
2022/12/15 09:14:27;;;;;;;14.50;8.75;;;3.60;99.90;;;;;;5037952;28;20545;-79
2022/12/15 09:16:53;;;;;;;11.95;7.07;;;3.60;99.90;;;;;;5048345;28;20180;-76
2022/12/15 09:19:18;;;;;;;10.40;5.82;;;3.70;99.90;;;;;;5032381;28;20183;-76
2022/12/15 09:21:44;;;;;;;15.60;6.57;;;3.60;99.90;;;;;;5047797;28;20276;-76
2022/12/15 09:24:12;;;;;;;11.23;6.10;;;3.50;99.90;;;;;;5041899;28;21539;-76
2022/12/15 09:26:38;;;;;;;15.57;6.57;;;3.50;99.90;;;;;;5022292;28;20595;-76
2022/12/15 09:29:04;;;;;;;13.32;5.82;;;3.40;99.90;;;;;;5032793;28;20188;-78
2022/12/15 09:31:36;;;;;;;17.35;6.30;;;3.40;99.90;;;;;;5036720;28;20536;-77
2022/12/15 09:34:02;;;;;;;48.53;8.45;;;3.70;99.90;;;;;;5028297;28;20180;-76
2022/12/15 09:36:31;;;;;;;22.33;11.18;;;3.90;99.90;;;;;;5028042;28;20187;-75
2022/12/15 09:38:58;;;;;;;21.40;8.75;;;4.10;99.90;;;;;;5020083;28;20215;-77
2022/12/15 09:41:26;;;;;;;14.23;6.72;;;4.40;99.90;;;;;;5034968;28;20208;-81
2022/12/15 09:43:52;;;;;;;11.70;5.95;;;4.70;99.90;;;;;;5034017;28;20188;-80
2022/12/15 09:46:42;;;;;;;16.50;6.28;;;5.00;99.90;;;;;;5021262;28;20204;-77
2022/12/15 09:49:38;;;;;;;16.45;6.65;;;5.30;99.90;;;;;;5023766;28;20191;-78
2022/12/15 09:52:12;;;;;;;10.95;6.55;;;5.60;99.90;;;;;;5017774;28;20223;-76
2022/12/15 09:54:42;;;;;;;14.52;6.78;;;5.90;99.90;;;;;;5032757;28;20558;-78
2022/12/15 09:57:17;;;;;;;11.52;6.75;;;6.10;99.90;;;;;;5037810;28;20489;-77
2022/12/15 10:00:14;;;;;;;10.85;5.93;;;6.40;99.90;;;;;;5029175;28;20182;-83
2022/12/15 10:02:46;;;;;;;14.82;6.30;;;6.70;99.90;;;;;;5032780;28;20319;-77
2022/12/15 10:05:27;;;;;;;10.57;6.68;;;6.80;99.90;;;;;;5035156;28;20179;-76
2022/12/15 10:07:53;;;;;;;16.35;6.68;;;7.00;99.90;;;;;;5031772;28;20195;-78
2022/12/15 10:10:42;;;;;;;11.52;7.03;;;7.10;99.90;;;;;;5034707;28;20550;-77
2022/12/15 10:13:50;;;;;;;14.70;6.47;;;7.20;99.90;;;;;;5042133;28;20206;-78
2022/12/15 10:16:25;;;;;;;14.88;7.03;;;7.30;99.90;;;;;;5028593;28;20188;-79
2022/12/15 10:19:31;;;;;;;13.23;6.18;;;7.40;99.90;;;;;;5034348;28;20188;-78
2022/12/15 10:21:57;;;;;;;17.20;6.70;;;7.60;99.90;;;;;;4998819;28;20254;-80
2022/12/15 10:24:27;;;;;;;12.32;6.30;;;7.70;99.90;;;;;;5025676;28;20276;-82
2022/12/15 10:27:05;;;;;;;17.52;6.50;;;7.70;99.90;;;;;;5034985;28;20603;-78
2022/12/15 10:29:44;;;;;;;14.55;6.85;;;7.90;99.90;;;;;;5031799;28;20180;-78
2022/12/15 10:32:32;;;;;;;11.68;6.20;;;8.10;99.90;;;;;;5034340;28;20187;-77
2022/12/15 10:34:58;;;;;;;9.90;6.20;;;8.20;99.90;;;;;;5034378;28;20195;-78
2022/12/15 10:37:24;;;;;;;13.52;6.45;;;8.30;99.90;;;;;;5034143;28;20180;-79
2022/12/15 10:39:50;;;;;;;8.95;5.82;;;8.40;99.90;;;;;;5044688;28;20179;-78
2022/12/15 10:42:22;;;;;;;17.60;6.25;;;8.50;99.90;;;;;;5046885;28;20277;-81
2022/12/15 10:44:51;;;;;;;14.85;6.00;;;8.60;99.90;;;;;;5033067;28;20223;-80
2022/12/15 10:47:25;;;;;;;9.95;6.20;;;8.70;99.90;;;;;;5049388;28;20180;-79
2022/12/15 10:49:52;;;;;;;12.00;6.40;;;8.70;99.90;;;;;;5030548;28;20187;-78
2022/12/15 10:52:39;;;;;;;15.95;6.88;;;8.80;99.90;;;;;;5045878;28;20615;-77
2022/12/15 10:55:44;;;;;;;12.00;6.32;;;8.80;99.90;;;;;;5034223;28;20183;-77
2022/12/15 10:58:19;;;;;;;14.10;6.00;;;8.90;99.90;;;;;;5032885;28;20191;-74
2022/12/15 11:00:45;;;;;;;22.42;6.53;;;9.00;99.90;;;;;;5056268;28;20298;-81
2022/12/15 11:03:35;;;;;;;11.55;6.07;;;9.00;99.90;;;;;;5023974;28;20192;-77
2022/12/15 11:06:05;;;;;;;16.00;5.88;;;9.00;99.90;;;;;;5040185;28;20180;-75
2022/12/15 11:08:31;;;;;;;13.10;6.25;;;9.00;99.90;;;;;;5032144;28;20184;-76
2022/12/15 11:14:01;;;;;;;18.05;6.15;;;9.10;99.90;;;;;;5024798;28;20230;-77
2022/12/15 11:16:30;;;;;;;13.23;6.05;;;9.10;99.90;;;;;;5034726;28;20168;-77
2022/12/15 11:19:09;;;;;;;13.88;6.30;;;9.10;99.90;;;;;;5033021;28;20212;-75
2022/12/15 11:21:46;;;;;;;10.02;6.10;;;9.10;99.90;;;;;;5029751;28;20310;-78
2022/12/15 11:24:43;;;;;;;12.98;5.85;;;9.20;99.90;;;;;;5031332;28;20262;-77
2022/12/15 11:27:14;;;;;;;12.90;6.20;;;9.30;99.90;;;;;;5030817;28;20191;-76
2022/12/15 11:29:58;;;;;;;13.98;5.82;;;9.40;99.90;;;;;;5033315;28;20180;-76
2022/12/15 11:32:28;;;;;;;12.35;5.78;;;9.50;99.90;;;;;;5030157;28;20198;-76
2022/12/15 11:34:55;;;;;;;10.98;5.82;;;9.50;99.90;;;;;;5028012;28;20188;-76
2022/12/15 11:37:42;;;;;;;12.63;5.30;;;9.60;99.90;;;;;;5017231;28;20197;-76
2022/12/15 11:40:30;;;;;;;12.77;5.30;;;9.70;99.60;;;;;;5029746;28;20674;-76
2022/12/15 11:43:14;;;;;;;12.55;5.18;;;9.70;99.10;;;;;;5032426;28;20195;-76
2022/12/15 11:45:53;;;;;;;10.18;5.28;;;9.70;99.10;;;;;;5032979;28;20289;-76
2022/12/15 11:48:34;;;;;;;14.13;5.97;;;9.70;98.90;;;;;;5020384;28;20179;-78
2022/12/15 11:51:22;;;;;;;8.95;4.90;;;9.70;98.70;;;;;;5028646;28;20183;-75
2022/12/15 11:54:03;;;;;;;9.82;5.07;;;9.70;98.50;;;;;;5031052;28;20176;-75
2022/12/15 11:56:29;;;;;;;16.38;5.80;;;9.70;98.50;;;;;;5033708;28;20180;-77
2022/12/15 11:59:33;;;;;;;11.73;5.07;;;9.60;98.30;;;;;;5031256;28;20234;-81
2022/12/15 12:02:20;;;;;;;12.70;5.53;;;9.60;98.20;;;;;;5032390;28;20290;-75
2022/12/15 12:05:14;;;;;;;13.63;5.53;;;9.60;98.30;;;;;;5046429;28;20259;-76
2022/12/15 12:07:45;;;;;;;10.80;5.30;;;9.60;98.20;;;;;;5028964;28;20636;-76
2022/12/15 12:10:28;;;;;;;16.77;5.20;;;9.60;98.00;;;;;;5030022;28;20188;-76
2022/12/15 12:13:04;;;;;;;12.20;5.57;;;9.60;97.90;;;;;;5048051;28;20267;-77
2022/12/15 12:15:51;;;;;;;11.13;5.05;;;9.70;97.80;;;;;;5029336;28;20222;-78
2022/12/15 12:18:23;;;;;;;12.90;5.20;;;9.70;97.50;;;;;;5031482;28;20230;-80
2022/12/15 12:21:19;;;;;;;10.55;5.13;;;9.60;97.50;;;;;;5024430;28;20594;-76
2022/12/15 12:23:54;;;;;;;12.30;5.20;;;9.60;97.40;;;;;;5018663;28;20196;-75
2022/12/15 12:26:23;;;;;;;9.27;5.30;;;9.60;97.30;;;;;;5048030;28;20675;-76
2022/12/15 12:29:19;;;;;;;14.00;5.13;;;9.50;97.20;;;;;;5032891;28;20180;-77
2022/12/15 12:31:57;;;;;;;10.43;4.95;;;9.50;97.10;;;;;;5032062;28;20198;-74
2022/12/15 12:34:47;;;;;;;11.25;5.03;;;9.40;96.90;;;;;;5032493;28;20207;-78
2022/12/15 12:37:36;;;;;;;12.65;4.43;;;9.40;96.70;;;;;;5019586;28;20179;-76
2022/12/15 12:40:13;;;;;;;19.13;5.30;;;9.30;96.90;;;;;;5022958;28;20177;-77
2022/12/15 12:43:09;;;;;;;13.50;5.10;;;9.30;97.10;;;;;;5018141;28;20220;-79
2022/12/15 12:45:51;;;;;;;10.07;4.40;;;9.30;97.00;;;;;;5025761;28;20220;-77
2022/12/15 12:48:36;;;;;;;10.90;4.90;;;9.40;97.00;;;;;;5027497;28;20180;-77
2022/12/15 12:51:23;;;;;;;10.50;5.20;;;9.40;96.80;;;;;;5017342;28;20328;-76
2022/12/15 12:53:50;;;;;;;13.30;5.13;;;9.30;96.80;;;;;;5029776;28;20180;-76
2022/12/15 12:56:42;;;;;;;13.73;5.30;;;9.20;97.00;;;;;;5029935;28;20658;-76
2022/12/15 12:59:42;;;;;;;13.82;5.28;;;9.20;97.20;;;;;;5021717;28;20184;-77
2022/12/15 13:02:14;;;;;;;11.80;4.80;;;9.20;97.00;;;;;;5003837;28;20722;-76
2022/12/15 13:05:03;;;;;;;11.02;4.75;;;9.20;97.10;;;;;;5041830;28;20188;-77
2022/12/15 13:07:37;;;;;;;12.55;5.18;;;9.30;97.20;;;;;;5015388;28;20283;-77
2022/12/15 13:10:16;;;;;;;12.60;5.00;;;9.30;97.10;;;;;;5021365;28;20579;-77
2022/12/15 13:12:50;;;;;;;14.07;4.95;;;9.40;97.10;;;;;;5018345;28;20176;-76
2022/12/15 13:15:37;;;;;;;13.48;4.97;;;9.40;97.10;;;;;;5031046;28;20233;-79
2022/12/15 13:18:13;;;;;;;8.40;4.72;;;9.40;97.20;;;;;;5036423;28;20180;-77
2022/12/15 13:20:40;;;;;;;12.30;4.65;;;9.40;97.30;;;;;;5036952;28;20180;-77
2022/12/15 13:23:21;;;;;;;10.88;5.10;;;9.40;97.40;;;;;;5035365;28;20183;-76
2022/12/15 13:25:52;;;;;;;14.00;5.30;;;9.40;97.50;;;;;;5039924;28;20626;-77
2022/12/15 13:28:26;;;;;;;11.68;5.00;;;9.40;97.70;;;;;;5033441;28;20184;-81
2022/12/15 13:31:17;;;;;;;11.73;4.97;;;9.50;97.90;;;;;;5020441;28;20196;-77
2022/12/15 13:33:49;;;;;;;9.68;5.20;;;9.50;97.80;;;;;;5021711;28;20176;-76
2022/12/15 13:36:36;;;;;;;10.40;5.15;;;9.50;97.70;;;;;;5050942;28;20241;-81
2022/12/15 13:39:11;;;;;;;10.00;5.30;;;9.50;97.40;;;;;;5034128;28;20282;-76
2022/12/15 13:42:03;;;;;;;11.60;5.25;;;9.40;97.40;;;;;;5035256;28;20211;-76
2022/12/15 13:44:34;;;;;;;19.80;5.45;;;9.10;97.00;;;;;;5033500;28;20326;-77
2022/12/15 13:47:22;;;;;;;10.63;5.13;;;8.90;97.00;;;;;;5024777;28;20183;-77
2022/12/15 13:49:59;;;;;;;11.63;4.43;;;8.70;97.10;;;;;;5042915;28;20186;-77
2022/12/15 13:52:46;;;;;;;8.32;4.03;;;8.60;97.20;;;;;;5037524;28;20192;-76
2022/12/15 13:55:21;;;;;;;10.23;4.45;;;8.40;97.20;;;;;;5059109;28;20184;-78
2022/12/15 13:57:55;;;;;;;14.15;5.40;;;8.20;97.20;;;;;;5059297;28;20275;-75
2022/12/15 14:00:22;;;;;;;14.13;4.38;;;8.10;97.30;;;;;;5032854;28;20176;-76
2022/12/15 14:02:47;;;;;;;8.63;4.75;;;7.90;97.40;;;;;;5034287;28;20726;-76
2022/12/15 14:05:16;;;;;;;17.20;5.38;;;7.80;97.50;;;;;;5033779;28;20188;-77
2022/12/15 14:08:02;;;;;;;9.52;4.68;;;7.70;97.70;;;;;;5024019;28;20274;-75
2022/12/15 14:10:50;;;;;;;11.93;5.07;;;7.60;97.80;;;;;;5046230;28;20192;-76
2022/12/15 14:13:24;;;;;;;19.05;5.03;;;7.40;97.90;;;;;;5048123;28;20500;-75
2022/12/15 14:16:01;;;;;;;18.77;5.20;;;7.40;98.10;;;;;;5041832;28;20176;-76
2022/12/15 14:18:33;;;;;;;13.73;5.80;;;7.30;98.20;;;;;;5037760;28;20179;-76
2022/12/15 14:21:00;;;;;;;12.23;5.60;;;7.20;98.40;;;;;;5031860;28;20208;-77
2022/12/15 14:23:28;;;;;;;15.05;5.43;;;7.10;98.60;;;;;;5027815;28;20188;-76
2022/12/15 14:26:05;;;;;;;18.17;6.00;;;7.10;98.70;;;;;;5043906;28;20192;-76
2022/12/15 14:28:34;;;;;;;12.40;5.60;;;7.00;98.80;;;;;;5033362;28;20814;-75
2022/12/15 14:31:11;;;;;;;19.52;6.13;;;6.90;99.00;;;;;;5033835;28;20188;-75
2022/12/15 14:33:40;;;;;;;13.35;5.45;;;6.80;99.50;;;;;;5033813;28;20218;-78
2022/12/15 14:36:11;;;;;;;12.70;6.30;;;6.70;99.30;;;;;;5031668;28;20222;-76
2022/12/15 14:38:48;;;;;;;13.48;5.90;;;6.60;99.50;;;;;;5033077;28;20255;-75
2022/12/15 14:41:26;;;;;;;13.38;6.20;;;6.60;99.60;;;;;;5031677;28;20236;-75
2022/12/15 14:43:58;;;;;;;15.75;6.65;;;6.60;99.80;;;;;;5033529;28;20177;-77
2022/12/15 14:46:26;;;;;;;20.33;7.03;;;6.60;99.80;;;;;;5034539;28;20586;-75
2022/12/15 14:49:07;;;;;;;13.80;6.15;;;6.50;99.90;;;;;;5024382;28;20187;-74
2022/12/15 14:51:43;;;;;;;23.70;6.95;;;6.50;99.90;;;;;;5035448;28;20191;-74
2022/12/15 14:54:34;;;;;;;17.38;7.10;;;6.40;99.90;;;;;;5066815;28;20709;-75
2022/12/15 14:57:24;;;;;;;11.43;6.47;;;6.40;99.90;;;;;;5035017;28;20160;-75
2022/12/15 14:59:51;;;;;;;15.73;6.45;;;6.30;99.90;;;;;;5033381;28;20176;-74
2022/12/15 15:02:23;;;;;;;19.95;7.05;;;6.30;99.90;;;;;;5031760;28;20306;-73
2022/12/15 15:05:04;;;;;;;15.05;6.22;;;6.30;99.90;;;;;;5034568;28;20214;-73
2022/12/15 15:07:36;;;;;;;12.88;6.07;;;6.20;99.90;;;;;;5036000;28;20180;-75
2022/12/15 15:10:07;;;;;;;14.18;6.30;;;6.20;99.90;;;;;;5029505;28;20180;-77
2022/12/15 15:12:44;;;;;;;16.35;6.00;;;6.10;99.90;;;;;;5017953;28;20190;-73
2022/12/15 15:15:16;;;;;;;12.98;6.50;;;6.20;99.90;;;;;;5027391;28;20266;-73
2022/12/15 15:17:58;;;;;;;17.38;6.15;;;6.10;99.90;;;;;;5028151;28;20267;-73
2022/12/15 15:20:25;;;;;;;16.83;6.45;;;6.10;99.90;;;;;;5032764;28;20184;-75
2022/12/15 15:23:06;;;;;;;13.57;6.40;;;6.00;99.90;;;;;;5029133;28;20231;-75
2022/12/15 15:25:32;;;;;;;20.33;6.30;;;6.00;99.90;;;;;;5033064;28;20191;-75
2022/12/15 15:28:16;;;;;;;13.10;5.97;;;5.90;99.90;;;;;;5048667;28;20188;-73
2022/12/15 15:30:47;;;;;;;13.40;6.10;;;5.80;99.90;;;;;;5030947;28;20184;-74
2022/12/15 15:33:13;;;;;;;16.23;5.88;;;5.80;99.90;;;;;;5031357;28;20243;-74
2022/12/15 15:35:40;;;;;;;13.98;6.57;;;5.80;99.90;;;;;;5025891;28;20180;-74